Time;durP1;ratioP1;P1;durP2;ratioP2;P2;SDS_P1;SDS_P2;PMS_P1;PMS_P2;Temp;Humidity;BMP_temperature;BMP_pressure;BME280_temperature;BME280_humidity;BME280_pressure;Samples;Min_cycle;Max_cycle;Signal;HPM_P1;HPM_P2
2021/12/14 00:01:35;;;;;;;237.38;218.35;;;;;;;2.68;100.00;101791.69;4992180;28;20120;-82
2021/12/14 00:04:05;;;;;;;267.08;245.48;;;;;;;2.69;100.00;101794.19;4992237;28;20056;-79
2021/12/14 00:06:32;;;;;;;250.38;229.93;;;;;;;2.78;100.00;101782.06;4994378;28;20042;-81
2021/12/14 00:09:01;;;;;;;247.63;228.18;;;;;;;2.77;100.00;101793.53;4996085;28;20042;-79
2021/12/14 00:11:49;;;;;;;252.10;232.63;;;;;;;2.82;100.00;101791.38;4996086;28;20050;-79
2021/12/14 00:15:02;;;;;;;234.95;215.80;;;;;;;2.76;100.00;101797.13;4991557;28;20043;-79
2021/12/14 00:17:18;;;;;;;222.85;204.75;;;;;;;2.71;100.00;101791.44;4990693;28;20042;-78
2021/12/14 00:19:45;;;;;;;217.33;199.93;;;;;;;2.50;100.00;101801.91;4992207;28;20050;-78
2021/12/14 00:22:25;;;;;;;215.20;197.63;;;;;;;2.43;100.00;101795.53;4996517;28;20297;-77
2021/12/14 00:24:51;;;;;;;232.52;213.52;;;;;;;2.44;100.00;101799.81;4994556;28;20050;-78
2021/12/14 00:27:21;;;;;;;265.23;244.65;;;;;;;2.66;100.00;101797.09;4995840;28;20096;-79
2021/12/14 00:29:51;;;;;;;267.40;245.52;;;;;;;2.75;100.00;101804.19;4995095;28;20065;-79
2021/12/14 00:32:20;;;;;;;173.98;157.85;;;;;;;2.79;100.00;101803.94;4995141;28;20058;-79
2021/12/14 00:34:48;;;;;;;283.92;261.45;;;;;;;2.77;100.00;101803.22;4990964;28;20073;-83
2021/12/14 00:37:19;;;;;;;196.00;178.73;;;;;;;2.82;100.00;101803.66;4989849;28;20054;-81
2021/12/14 00:39:49;;;;;;;171.23;155.70;;;;;;;2.71;100.00;101797.50;4995821;28;20047;-82
2021/12/14 00:42:16;;;;;;;177.65;161.65;;;;;;;2.71;100.00;101800.13;4995866;28;20058;-78
2021/12/14 00:44:45;;;;;;;215.93;194.80;;;;;;;2.70;100.00;101808.97;4992802;28;20446;-80
2021/12/14 00:47:12;;;;;;;164.88;147.20;;;;;;;2.70;100.00;101805.53;4994804;28;20058;-82
2021/12/14 00:49:40;;;;;;;207.48;167.40;;;;;;;2.77;100.00;101806.66;4995587;28;20116;-81
2021/12/14 00:52:09;;;;;;;195.43;173.15;;;;;;;2.71;100.00;101812.41;4996415;28;20113;-80
2021/12/14 00:54:37;;;;;;;175.52;157.18;;;;;;;2.78;100.00;101810.13;4995201;28;20542;-78
2021/12/14 00:57:06;;;;;;;255.52;233.45;;;;;;;2.81;100.00;101807.22;4994656;28;20065;-80
2021/12/14 00:59:34;;;;;;;264.80;242.82;;;;;;;2.60;100.00;101815.91;4992105;28;20042;-78
2021/12/14 01:02:06;;;;;;;258.92;235.77;;;;;;;2.58;100.00;101814.41;4994637;28;20042;-80
2021/12/14 01:04:39;;;;;;;277.10;252.65;;;;;;;2.66;100.00;101811.97;4994688;28;20050;-79
2021/12/14 01:07:09;;;;;;;273.92;249.77;;;;;;;2.59;100.00;101818.69;4995882;28;20452;-79
2021/12/14 01:09:38;;;;;;;252.60;231.55;;;;;;;2.50;100.00;101815.03;4994935;28;20062;-80
2021/12/14 01:12:13;;;;;;;255.90;234.23;;;;;;;2.56;100.00;101817.16;4994032;28;20121;-79
2021/12/14 01:14:47;;;;;;;282.30;258.15;;;;;;;2.65;100.00;101818.19;4994211;28;20133;-80
2021/12/14 01:17:27;;;;;;;189.70;171.23;;;;;;;2.68;100.00;101820.53;4994452;28;20101;-78
2021/12/14 01:19:58;;;;;;;162.73;146.63;;;;;;;2.62;100.00;101819.25;4989334;28;20462;-81
2021/12/14 01:22:39;;;;;;;171.43;154.25;;;;;;;2.58;100.00;101819.66;4977325;28;20063;-79
2021/12/14 01:25:14;;;;;;;273.83;250.13;;;;;;;2.59;100.00;101816.88;4989644;28;20057;-82
2021/12/14 01:27:47;;;;;;;268.13;244.55;;;;;;;2.61;100.00;101820.22;4992335;28;20042;-82
2021/12/14 01:30:26;;;;;;;236.10;215.30;;;;;;;2.66;100.00;101818.06;4994244;28;20050;-79
2021/12/14 01:33:00;;;;;;;258.05;237.40;;;;;;;2.42;100.00;101812.19;4992786;28;20450;-80
2021/12/14 01:35:31;;;;;;;239.48;220.30;;;;;;;2.45;100.00;101819.81;4984481;28;20055;-82
2021/12/14 01:38:04;;;;;;;218.95;200.38;;;;;;;2.62;100.00;101821.88;4988260;28;20051;-80
2021/12/14 01:40:53;;;;;;;251.05;230.27;;;;;;;2.66;100.00;101817.22;4994197;28;20399;-79
2021/12/14 01:43:24;;;;;;;249.75;229.07;;;;;;;2.63;100.00;101822.72;4985869;28;20137;-82
2021/12/14 01:45:51;;;;;;;218.07;198.77;;;;;;;2.56;100.00;101821.56;4992543;28;20046;-78
2021/12/14 01:48:20;;;;;;;212.07;193.77;;;;;;;2.51;100.00;101824.56;4994440;28;20069;-79
2021/12/14 01:50:50;;;;;;;148.15;133.07;;;;;;;2.42;100.00;101823.53;4994219;28;20046;-79
2021/12/14 01:53:20;;;;;;;174.95;158.43;;;;;;;2.55;100.00;101818.13;4994058;28;20058;-79
2021/12/14 01:55:52;;;;;;;176.40;159.73;;;;;;;2.63;100.00;101825.34;4993651;28;20049;-80
2021/12/14 01:58:21;;;;;;;247.70;225.05;;;;;;;2.59;100.00;101826.56;4985649;28;20089;-79
2021/12/14 02:00:53;;;;;;;249.50;226.80;;;;;;;2.55;100.00;101828.59;4991575;28;20046;-79
2021/12/14 02:03:30;;;;;;;246.45;224.57;;;;;;;2.59;100.00;101826.56;4993457;28;20054;-80
2021/12/14 02:05:56;;;;;;;256.25;236.40;;;;;;;2.61;100.00;101833.34;4992230;28;20047;-82
2021/12/14 02:08:26;;;;;;;253.70;233.80;;;;;;;2.64;100.00;101834.88;4993370;28;20050;-82
2021/12/14 02:10:55;;;;;;;172.40;156.48;;;;;;;2.49;100.00;101834.34;4992245;28;20175;-79
2021/12/14 02:13:28;;;;;;;158.75;143.57;;;;;;;2.55;100.00;101838.28;4991282;28;20499;-79
2021/12/14 02:15:55;;;;;;;150.93;136.90;;;;;;;2.47;100.00;101837.09;4993823;28;20474;-79
2021/12/14 02:18:25;;;;;;;140.23;127.20;;;;;;;2.52;100.00;101840.19;4992258;28;20105;-82
2021/12/14 02:20:56;;;;;;;150.32;137.15;;;;;;;2.46;100.00;101845.09;4992586;28;20054;-80
2021/12/14 02:23:23;;;;;;;134.57;122.50;;;;;;;2.35;100.00;101837.25;4993765;28;20058;-82
2021/12/14 02:25:52;;;;;;;130.73;119.15;;;;;;;2.41;100.00;101845.47;4993433;28;20098;-80
2021/12/14 02:28:20;;;;;;;137.55;125.75;;;;;;;2.36;100.00;101845.03;4994216;28;20058;-79
2021/12/14 02:30:49;;;;;;;136.32;124.55;;;;;;;2.32;100.00;101842.75;4988289;28;20046;-81
2021/12/14 02:33:19;;;;;;;128.73;117.53;;;;;;;2.30;100.00;101835.03;4990848;28;20049;-79
2021/12/14 02:35:47;;;;;;;118.00;107.25;;;;;;;2.27;100.00;101830.88;4993186;28;20046;-83
2021/12/14 02:38:17;;;;;;;127.47;116.85;;;;;;;2.26;100.00;101844.91;4987853;28;20549;-81
2021/12/14 02:40:55;;;;;;;135.82;124.80;;;;;;;2.25;100.00;101837.19;4988287;28;20055;-80
2021/12/14 02:43:26;;;;;;;133.88;122.60;;;;;;;2.15;100.00;101844.09;4983007;28;20109;-79
2021/12/14 02:45:54;;;;;;;123.65;112.13;;;;;;;2.17;100.00;101835.16;4986551;28;20042;-79
2021/12/14 02:48:24;;;;;;;122.57;111.78;;;;;;;2.15;100.00;101826.63;4989341;28;20112;-79
2021/12/14 02:50:51;;;;;;;126.82;115.63;;;;;;;2.15;100.00;101831.84;4993027;28;20057;-80
2021/12/14 02:53:19;;;;;;;142.75;130.60;;;;;;;2.19;100.00;101830.66;4989493;28;20120;-80
2021/12/14 02:55:46;;;;;;;144.75;132.43;;;;;;;2.16;100.00;101830.88;4987475;28;20122;-80
2021/12/14 02:58:13;;;;;;;143.07;131.07;;;;;;;2.23;100.00;101831.22;4990281;28;20109;-80
2021/12/14 03:03:19;;;;;;;132.40;120.60;;;;;;;2.09;100.00;101836.75;4196141;26;20412;-82
2021/12/14 03:05:49;;;;;;;135.68;124.03;;;;;;;2.12;100.00;101836.50;4967746;28;20046;-80
2021/12/14 03:08:20;;;;;;;132.82;120.45;;;;;;;2.20;100.00;101834.91;4967702;28;20051;-82
2021/12/14 03:10:57;;;;;;;132.95;121.25;;;;;;;2.09;100.00;101834.97;4972720;28;20106;-83
2021/12/14 03:13:28;;;;;;;128.70;117.38;;;;;;;2.14;100.00;101835.41;4976793;28;20090;-79
2021/12/14 03:15:58;;;;;;;109.72;99.07;;;;;;;2.03;100.00;101835.47;4970009;28;20074;-79
2021/12/14 03:18:28;;;;;;;111.25;100.80;;;;;;;2.08;100.00;101843.78;4966247;28;20442;-82
2021/12/14 03:20:58;;;;;;;106.30;96.65;;;;;;;2.06;100.00;101837.84;4968588;28;20059;-82
2021/12/14 03:23:30;;;;;;;119.38;108.93;;;;;;;2.04;100.00;101840.56;4974561;28;20043;-82
2021/12/14 03:25:59;;;;;;;114.25;104.30;;;;;;;2.11;100.00;101845.31;4973884;28;20039;-82
2021/12/14 03:28:28;;;;;;;112.22;102.32;;;;;;;2.11;100.00;101842.69;4972859;28;20121;-79
2021/12/14 03:31:06;;;;;;;121.88;111.82;;;;;;;2.13;100.00;101849.50;4966086;28;20047;-79
2021/12/14 03:33:36;;;;;;;117.82;107.93;;;;;;;2.08;100.00;101849.00;4963905;28;20054;-80
2021/12/14 03:36:08;;;;;;;132.90;122.25;;;;;;;2.06;100.00;101856.19;4969194;28;20058;-79
2021/12/14 03:38:40;;;;;;;129.10;118.38;;;;;;;2.05;100.00;101851.88;4983555;28;20050;-82
2021/12/14 03:41:11;;;;;;;125.03;114.38;;;;;;;2.02;100.00;101849.50;4974050;28;20059;-83
2021/12/14 03:43:41;;;;;;;139.77;128.88;;;;;;;2.04;100.00;101851.06;4966772;28;20118;-82
2021/12/14 03:46:09;;;;;;;138.40;127.80;;;;;;;2.01;100.00;101853.09;4969692;28;20046;-79
2021/12/14 03:48:37;;;;;;;139.13;128.25;;;;;;;2.07;100.00;101855.22;4964725;28;20043;-79
2021/12/14 03:51:04;;;;;;;152.27;139.88;;;;;;;1.99;100.00;101861.06;4976060;28;20113;-78
2021/12/14 03:53:31;;;;;;;148.98;137.18;;;;;;;2.05;100.00;101860.56;4970815;28;20083;-79
2021/12/14 03:56:01;;;;;;;151.77;140.40;;;;;;;1.99;100.00;101862.84;4973317;28;20055;-83
2021/12/14 03:58:35;;;;;;;147.77;136.32;;;;;;;1.97;100.00;101857.75;4986616;28;20541;-82
2021/12/14 04:01:07;;;;;;;149.48;137.75;;;;;;;2.14;100.00;101863.41;4985859;28;20054;-79
2021/12/14 04:03:36;;;;;;;157.73;144.70;;;;;;;2.09;100.00;101861.19;4985687;28;20062;-79
2021/12/14 04:06:04;;;;;;;172.88;159.13;;;;;;;1.97;100.00;101859.53;4967061;28;20538;-80
2021/12/14 04:08:31;;;;;;;152.02;140.07;;;;;;;1.96;100.00;101869.16;4970851;28;20110;-83
2021/12/14 04:11:03;;;;;;;150.52;138.27;;;;;;;2.04;100.00;101874.63;4982151;28;20113;-79
2021/12/14 04:13:35;;;;;;;151.35;139.30;;;;;;;1.92;100.00;101870.38;4974984;28;20133;-78
2021/12/14 04:16:02;;;;;;;164.80;151.85;;;;;;;1.99;100.00;101874.16;4963752;28;20443;-79
2021/12/14 04:18:29;;;;;;;153.60;141.57;;;;;;;1.81;100.00;101879.06;4968152;28;20051;-78
2021/12/14 04:20:58;;;;;;;127.03;116.43;;;;;;;1.83;100.00;101876.34;4972779;28;20133;-80
2021/12/14 04:23:28;;;;;;;125.78;115.15;;;;;;;1.79;100.00;101881.00;4978232;28;20054;-78
2021/12/14 04:25:58;;;;;;;129.30;118.18;;;;;;;1.85;100.00;101879.69;4981359;28;20176;-79
2021/12/14 04:28:31;;;;;;;128.77;117.90;;;;;;;1.92;100.00;101893.97;4960265;28;20130;-79
2021/12/14 04:30:58;;;;;;;134.73;123.30;;;;;;;1.97;100.00;101886.56;4967905;28;20129;-81
2021/12/14 04:33:28;;;;;;;142.65;130.63;;;;;;;1.77;100.00;101888.13;4983583;28;20129;-82
2021/12/14 04:35:56;;;;;;;130.75;119.80;;;;;;;1.84;100.00;101891.91;4977107;28;20116;-80
2021/12/14 04:38:28;;;;;;;135.50;123.82;;;;;;;1.71;100.00;101893.00;4980686;28;20055;-80
2021/12/14 04:52:09;;;;;;;123.10;112.65;;;;;;;1.79;100.00;101907.19;4961091;28;20146;-79
2021/12/14 04:54:40;;;;;;;129.73;118.68;;;;;;;1.82;100.00;101901.72;4969593;28;20050;-82
2021/12/14 04:57:18;;;;;;;128.02;117.25;;;;;;;1.85;100.00;101908.50;4969326;28;20051;-80
2021/12/14 04:59:47;;;;;;;135.18;123.18;;;;;;;1.82;100.00;101903.50;4973146;28;20487;-80
2021/12/14 05:02:18;;;;;;;143.18;131.32;;;;;;;1.92;100.00;101901.00;4982968;28;20054;-80
2021/12/14 05:04:45;;;;;;;145.85;133.23;;;;;;;1.98;100.00;101903.94;4968213;28;20525;-79
2021/12/14 05:07:33;;;;;;;134.75;123.03;;;;;;;1.81;100.00;101913.13;4983061;28;20054;-79
2021/12/14 05:10:00;;;;;;;131.38;120.22;;;;;;;1.92;100.00;101908.84;4976603;28;20050;-80
2021/12/14 05:12:30;;;;;;;125.47;114.47;;;;;;;1.94;100.00;101914.81;4966664;28;20082;-81
2021/12/14 05:15:01;;;;;;;113.13;103.43;;;;;;;1.87;100.00;101924.09;4964042;28;20498;-80
2021/12/14 05:17:32;;;;;;;104.43;95.32;;;;;;;1.89;100.00;101919.56;4963190;28;20091;-81
2021/12/14 05:20:00;;;;;;;110.38;101.15;;;;;;;1.96;100.00;101918.13;4982553;28;20372;-79
2021/12/14 05:22:32;;;;;;;106.18;96.78;;;;;;;1.92;100.00;101924.56;4956780;28;20051;-79
2021/12/14 05:25:04;;;;;;;108.80;99.72;;;;;;;1.88;100.00;101931.00;4973361;28;20053;-80
2021/12/14 05:27:35;;;;;;;105.45;96.97;;;;;;;1.86;100.00;101923.25;4973312;28;20063;-83
2021/12/14 05:30:11;;;;;;;100.30;91.88;;;;;;;1.89;100.00;101927.44;4966997;28;20050;-80
2021/12/14 05:32:39;;;;;;;100.95;93.05;;;;;;;1.82;100.00;101933.16;4965909;28;20042;-79
2021/12/14 05:35:09;;;;;;;105.85;97.05;;;;;;;1.84;100.00;101933.00;4972776;28;20455;-81
2021/12/14 05:37:44;;;;;;;114.20;104.28;;;;;;;1.83;100.00;101937.44;4968840;28;20055;-79
2021/12/14 05:40:41;;;;;;;120.30;110.20;;;;;;;1.77;100.00;101940.53;4825443;29;20124;-82
2021/12/14 05:43:10;;;;;;;134.55;123.35;;;;;;;1.76;100.00;101943.28;4903893;29;20548;-82
2021/12/14 05:45:43;;;;;;;107.07;97.30;;;;;;;1.81;100.00;101941.13;4913631;29;20145;-80
2021/12/14 05:48:12;;;;;;;101.70;91.80;;;;;;;1.84;100.00;101944.31;4914114;29;20084;-81
2021/12/14 05:50:44;;;;;;;101.07;91.22;;;;;;;1.88;100.00;101942.31;4913860;29;20048;-80
2021/12/14 05:53:17;;;;;;;99.68;89.80;;;;;;;2.09;100.00;101949.44;4922297;29;20074;-80
2021/12/14 05:55:44;;;;;;;100.90;91.05;;;;;;;2.22;100.00;101958.03;4913104;29;20083;-80
2021/12/14 05:58:14;;;;;;;116.75;104.63;;;;;;;2.53;100.00;101959.03;4927948;29;20117;-78
2021/12/14 06:00:45;;;;;;;102.18;91.25;;;;;;;2.52;100.00;101958.19;4979556;28;20085;-80
2021/12/14 06:03:22;;;;;;;105.97;95.03;;;;;;;2.43;100.00;101956.31;4972369;28;20403;-80
2021/12/14 06:05:49;;;;;;;104.80;91.10;;;;;;;2.45;100.00;101951.78;4971526;28;20043;-81
2021/12/14 06:08:23;;;;;;;104.03;90.60;;;;;;;2.53;100.00;101952.00;4975766;28;20085;-79
2021/12/14 06:10:51;;;;;;;102.68;93.07;;;;;;;3.53;100.00;101949.03;4989048;28;20475;-78
2021/12/14 06:13:19;;;;;;;139.10;125.93;;;;;;;6.20;100.00;101956.59;4978740;28;20133;-77
2021/12/14 06:15:48;;;;;;;102.45;92.20;;;;;;;3.16;100.00;101938.16;4978850;28;20427;-80
2021/12/14 06:18:23;;;;;;;107.28;96.43;;;;;;;2.23;100.00;101946.56;4979711;28;20055;-79
2021/12/14 06:20:50;;;;;;;114.43;102.25;;;;;;;1.88;100.00;101951.97;4974431;28;20050;-79
2021/12/14 06:23:24;;;;;;;109.88;98.53;;;;;;;1.87;100.00;101953.72;4967526;28;20468;-79
2021/12/14 06:25:51;;;;;;;117.07;103.90;;;;;;;1.87;100.00;101955.53;4976321;28;20670;-79
2021/12/14 06:28:23;;;;;;;119.30;106.95;;;;;;;1.66;100.00;101952.78;4965446;28;20046;-79
2021/12/14 06:30:52;;;;;;;108.90;98.03;;;;;;;1.64;100.00;101954.69;4962787;28;20547;-79
2021/12/14 06:33:20;;;;;;;118.15;106.28;;;;;;;1.70;100.00;101955.06;4969812;28;20062;-79
2021/12/14 06:35:50;;;;;;;109.20;98.63;;;;;;;1.65;100.00;101962.41;4967003;28;20483;-79
2021/12/14 06:38:29;;;;;;;106.38;95.03;;;;;;;1.64;100.00;101959.94;4966373;28;20066;-78
2021/12/14 06:41:10;;;;;;;115.50;104.00;;;;;;;1.69;100.00;101957.78;4960561;28;20146;-78
2021/12/14 06:43:41;;;;;;;112.05;100.05;;;;;;;1.75;100.00;101959.91;4983079;28;20479;-78
2021/12/14 06:46:12;;;;;;;112.55;98.25;;;;;;;1.78;100.00;101971.00;4965612;28;20051;-78
2021/12/14 06:48:41;;;;;;;126.07;113.15;;;;;;;1.75;100.00;101975.63;4963053;28;20081;-78
2021/12/14 06:51:11;;;;;;;117.05;105.47;;;;;;;1.65;100.00;101972.91;4967314;28;20454;-79
2021/12/14 06:53:38;;;;;;;136.85;123.50;;;;;;;1.72;100.00;101979.31;4977831;28;20108;-78
2021/12/14 06:56:09;;;;;;;119.03;107.53;;;;;;;1.66;100.00;101977.19;4977138;28;20054;-79
2021/12/14 06:58:39;;;;;;;128.27;115.47;;;;;;;1.65;100.00;101980.75;4967863;28;20043;-78
2021/12/14 07:01:12;;;;;;;118.82;107.60;;;;;;;1.60;100.00;101980.25;4962806;28;20083;-79
2021/12/14 07:03:44;;;;;;;114.82;104.15;;;;;;;1.61;100.00;101976.72;4966916;28;20105;-82
2021/12/14 07:06:14;;;;;;;109.95;99.45;;;;;;;1.61;100.00;101981.94;4967134;28;20055;-79
2021/12/14 07:08:41;;;;;;;104.43;94.03;;;;;;;1.64;100.00;101984.34;4967393;28;20051;-79
2021/12/14 07:11:08;;;;;;;116.82;105.93;;;;;;;1.66;100.00;101985.03;4969569;28;20059;-79
2021/12/14 07:13:38;;;;;;;110.18;100.18;;;;;;;1.63;100.00;101987.06;4982743;28;20502;-78
2021/12/14 07:16:19;;;;;;;114.45;103.93;;;;;;;1.64;100.00;101986.13;4968274;28;20047;-79
2021/12/14 07:18:48;;;;;;;119.22;108.45;;;;;;;1.74;100.00;101990.53;4969994;28;20047;-78
2021/12/14 07:21:33;;;;;;;115.03;103.18;;;;;;;1.64;100.00;102000.06;4975284;28;20058;-79
2021/12/14 07:24:20;;;;;;;123.93;112.95;;;;;;;1.70;100.00;101994.34;4969427;28;20121;-79
2021/12/14 07:26:47;;;;;;;139.43;127.03;;;;;;;1.75;100.00;101997.44;4975001;28;20471;-78
2021/12/14 07:29:21;;;;;;;124.35;113.15;;;;;;;1.73;100.00;102001.97;4967069;28;20058;-78
2021/12/14 07:31:49;;;;;;;132.18;119.47;;;;;;;1.74;100.00;102003.63;4986336;28;20050;-79
2021/12/14 07:34:16;;;;;;;136.63;122.93;;;;;;;1.75;100.00;102005.28;4977849;28;20051;-79
2021/12/14 07:36:43;;;;;;;137.13;123.93;;;;;;;1.72;100.00;102002.06;4971570;28;20458;-80
2021/12/14 07:39:12;;;;;;;115.50;103.85;;;;;;;1.69;100.00;102003.13;4977225;28;20058;-79
2021/12/14 07:41:44;;;;;;;142.85;129.40;;;;;;;1.73;100.00;102003.75;4974885;28;20050;-80
2021/12/14 07:44:12;;;;;;;;;;;;;;;1.73;100.00;102011.63;4972444;28;20078;-80
2021/12/14 07:46:43;;;;;;;129.15;117.47;;;;;;;1.67;100.00;102014.69;4984540;28;19922;-80
2021/12/14 07:49:20;;;;;;;135.68;123.90;;;;;;;1.63;100.00;102015.88;4967052;28;20117;-80
2021/12/14 07:51:50;;;;;;;142.45;129.05;;;;;;;1.78;100.00;102025.19;4966936;28;20098;-80
2021/12/14 07:54:20;;;;;;;120.18;109.00;;;;;;;1.64;100.00;102018.38;4968647;28;20117;-80
2021/12/14 07:56:50;;;;;;;133.90;121.68;;;;;;;1.74;100.00;102023.75;4962760;28;20121;-80
2021/12/14 07:59:22;;;;;;;153.05;139.25;;;;;;;1.79;100.00;102029.50;4984925;28;20109;-80
2021/12/14 08:01:50;;;;;;;134.60;122.38;;;;;;;1.61;100.00;102026.47;4979009;28;20071;-80
2021/12/14 08:04:19;;;;;;;136.43;124.05;;;;;;;1.66;100.00;102033.97;4972788;28;20097;-79
2021/12/14 08:06:50;;;;;;;131.60;119.38;;;;;;;1.82;100.00;102032.69;4970082;28;20535;-80
2021/12/14 08:09:34;;;;;;;126.75;114.97;;;;;;;1.91;100.00;102032.97;4969657;28;20467;-80
2021/12/14 08:12:04;;;;;;;126.43;114.75;;;;;;;1.93;100.00;102029.25;4966206;28;20039;-79
2021/12/14 08:14:31;;;;;;;119.72;108.47;;;;;;;1.81;100.00;102030.19;4968019;28;20054;-79
2021/12/14 08:17:00;;;;;;;132.02;119.90;;;;;;;1.81;100.00;102040.66;4972505;28;20482;-80
2021/12/14 08:19:34;;;;;;;141.35;127.88;;;;;;;1.99;100.00;102041.06;4969300;28;20059;-80
2021/12/14 08:22:06;;;;;;;100.22;89.70;;;;;;;1.85;100.00;102047.38;4975336;28;20042;-80
2021/12/14 08:24:33;;;;;;;100.78;89.75;;;;;;;1.96;100.00;102036.03;4975533;28;20113;-80
2021/12/14 08:27:01;;;;;;;109.55;94.95;;;;;;;2.04;100.00;102034.50;4972622;28;20042;-80
2021/12/14 08:29:30;;;;;;;99.85;88.95;;;;;;;1.81;100.00;102032.81;4975548;28;20105;-80
2021/12/14 08:31:59;;;;;;;111.47;99.80;;;;;;;1.89;100.00;102030.44;4971661;28;21682;-79
2021/12/14 08:34:28;;;;;;;105.25;93.95;;;;;;;1.93;100.00;102031.03;4963620;28;20051;-80
2021/12/14 08:37:02;;;;;;;115.85;105.18;;;;;;;1.93;100.00;102034.50;4977931;28;20396;-79
2021/12/14 08:39:31;;;;;;;119.22;107.68;;;;;;;1.90;100.00;102029.47;4974376;28;20051;-80
2021/12/14 08:42:10;;;;;;;110.22;99.88;;;;;;;1.87;100.00;102026.28;4961714;28;20100;-81
2021/12/14 08:44:40;;;;;;;123.43;110.47;;;;;;;1.95;100.00;102032.59;4966179;28;20407;-79
2021/12/14 08:47:10;;;;;;;123.40;110.40;;;;;;;1.93;100.00;102034.50;4974952;28;20061;-80
2021/12/14 08:49:38;;;;;;;111.25;99.55;;;;;;;1.89;100.00;102038.31;4978532;28;20050;-80
2021/12/14 08:52:08;;;;;;;95.93;84.78;;;;;;;1.93;100.00;102026.63;4973500;28;20051;-80
2021/12/14 08:54:37;;;;;;;92.35;81.38;;;;;;;1.86;100.00;102024.63;4972673;28;20058;-81
2021/12/14 08:57:08;;;;;;;113.57;101.75;;;;;;;1.98;100.00;102024.50;4977993;28;20129;-80
2021/12/14 08:59:36;;;;;;;116.80;104.38;;;;;;;2.11;100.00;102013.06;4970433;28;20042;-79
2021/12/14 09:02:07;;;;;;;105.30;94.57;;;;;;;1.87;100.00;102013.16;4969477;28;20436;-81
2021/12/14 09:04:37;;;;;;;111.32;99.30;;;;;;;2.00;100.00;102017.38;4982618;28;20043;-80
2021/12/14 09:07:11;;;;;;;104.75;93.28;;;;;;;2.10;100.00;102003.53;4973610;28;20458;-80
2021/12/14 09:09:42;;;;;;;97.82;87.78;;;;;;;1.91;100.00;102017.25;4963709;28;20472;-79
2021/12/14 09:12:12;;;;;;;103.37;92.87;;;;;;;1.94;100.00;102002.13;4958860;28;20369;-80
2021/12/14 09:14:40;;;;;;;107.15;95.88;;;;;;;1.91;100.00;102004.97;4967816;28;20715;-80
2021/12/14 09:17:09;;;;;;;109.93;93.93;;;;;;;2.03;100.00;101998.78;4980875;28;20055;-79
2021/12/14 09:19:38;;;;;;;104.07;92.72;;;;;;;1.98;100.00;102000.09;4966117;28;20046;-80
2021/12/14 09:22:12;;;;;;;107.40;95.82;;;;;;;2.02;100.00;102004.13;4964756;28;20051;-81
2021/12/14 09:24:39;;;;;;;106.60;94.53;;;;;;;1.99;100.00;101999.94;4974426;28;20095;-80
2021/12/14 09:27:12;;;;;;;113.05;97.90;;;;;;;1.90;100.00;101987.56;4970075;28;20051;-80
2021/12/14 09:29:39;;;;;;;100.25;89.22;;;;;;;2.04;100.00;101989.13;4963180;28;20047;-79
2021/12/14 09:32:10;;;;;;;105.93;94.72;;;;;;;2.09;100.00;101984.38;4966426;28;20050;-79
2021/12/14 09:34:39;;;;;;;98.70;85.53;;;;;;;2.06;100.00;101987.22;4965462;28;20062;-79
2021/12/14 09:37:10;;;;;;;104.97;93.53;;;;;;;2.00;100.00;101991.16;4964687;28;20130;-79
2021/12/14 09:39:42;;;;;;;90.28;80.78;;;;;;;2.01;100.00;101987.56;4963583;28;20149;-80
2021/12/14 09:42:13;;;;;;;89.32;79.72;;;;;;;2.01;100.00;101979.72;4969926;28;20055;-80
2021/12/14 09:44:41;;;;;;;87.78;78.70;;;;;;;2.11;100.00;101984.25;4968654;28;20058;-79
2021/12/14 09:47:12;;;;;;;83.00;74.70;;;;;;;1.97;100.00;101975.66;4971579;28;20058;-79
2021/12/14 09:49:40;;;;;;;88.10;80.35;;;;;;;1.99;100.00;101975.53;4972997;28;20042;-79
2021/12/14 09:52:11;;;;;;;86.20;77.53;;;;;;;1.93;100.00;101978.63;4980916;28;20120;-79
2021/12/14 09:54:40;;;;;;;91.60;82.50;;;;;;;2.07;100.00;101986.28;4972945;28;20059;-79
2021/12/14 09:57:10;;;;;;;114.22;89.43;;;;;;;2.12;100.00;101981.50;4965843;28;20054;-80
2021/12/14 09:59:38;;;;;;;95.70;85.65;;;;;;;2.12;100.00;101981.50;4969304;28;20109;-80
2021/12/14 10:02:11;;;;;;;90.25;80.85;;;;;;;2.18;100.00;101986.28;4983592;28;20115;-79
2021/12/14 10:04:43;;;;;;;80.38;71.88;;;;;;;2.12;100.00;101981.50;4969870;28;20058;-78
2021/12/14 10:07:11;;;;;;;82.10;73.07;;;;;;;2.13;100.00;101991.03;4985821;28;20050;-79
2021/12/14 10:09:44;;;;;;;82.15;73.15;;;;;;;2.18;100.00;101980.16;4984194;28;20054;-79
2021/12/14 10:12:41;;;;;;;79.47;70.80;;;;;;;2.12;100.00;101981.50;4978367;28;20044;-81
2021/12/14 10:15:10;;;;;;;85.88;76.80;;;;;;;2.09;100.00;101980.88;4971595;28;20134;-79
2021/12/14 10:17:39;;;;;;;86.35;77.68;;;;;;;2.12;100.00;101970.16;4981166;28;20171;-80
2021/12/14 10:20:07;;;;;;;89.78;80.65;;;;;;;2.29;100.00;101972.31;4982431;28;20050;-80
2021/12/14 10:22:34;;;;;;;90.68;80.88;;;;;;;2.38;100.00;101970.75;4982909;28;20124;-79
2021/12/14 10:25:07;;;;;;;106.53;96.45;;;;;;;2.21;100.00;101966.81;4964740;28;20051;-79
2021/12/14 10:27:35;;;;;;;114.35;104.38;;;;;;;2.29;100.00;101969.69;4977256;28;20050;-79
2021/12/14 10:30:07;;;;;;;107.57;97.75;;;;;;;2.31;100.00;101977.44;4973603;28;20050;-78
2021/12/14 10:32:36;;;;;;;105.72;96.22;;;;;;;2.32;100.00;101963.38;4970236;28;20062;-79
2021/12/14 10:35:08;;;;;;;98.40;90.03;;;;;;;2.37;100.00;101969.09;4982651;28;20063;-80
2021/12/14 10:37:51;;;;;;;102.70;94.05;;;;;;;2.40;100.00;101971.47;4985903;28;20545;-79
2021/12/14 10:43:12;;;;;;;95.60;86.57;;;;;;;2.47;100.00;101968.22;4974060;28;20506;-79
2021/12/14 10:45:42;;;;;;;90.07;80.72;;;;;;;2.56;100.00;101971.06;4973357;28;20498;-82
2021/12/14 10:48:10;;;;;;;95.03;85.47;;;;;;;2.62;100.00;101971.41;4977661;28;20043;-80
2021/12/14 10:50:38;;;;;;;93.05;83.50;;;;;;;2.56;100.00;101965.81;4985615;28;20133;-78
2021/12/14 10:53:08;;;;;;;94.95;85.72;;;;;;;2.56;100.00;101958.78;4982894;28;20121;-79
2021/12/14 10:55:41;;;;;;;106.63;96.40;;;;;;;2.65;100.00;101960.66;4980812;28;20055;-80
2021/12/14 10:58:09;;;;;;;102.20;91.97;;;;;;;2.75;100.00;101951.13;4983799;28;20565;-80
2021/12/14 11:00:41;;;;;;;95.40;86.60;;;;;;;2.60;100.00;101949.69;4980256;28;20458;-80
2021/12/14 11:03:12;;;;;;;89.22;80.55;;;;;;;2.53;100.00;101954.63;4970337;28;20058;-80
2021/12/14 11:05:44;;;;;;;97.28;88.25;;;;;;;2.69;100.00;101951.59;4974649;28;20462;-81
2021/12/14 11:08:31;;;;;;;92.70;83.80;;;;;;;2.60;100.00;101946.25;4979751;28;20141;-78
2021/12/14 11:11:00;;;;;;;93.57;84.78;;;;;;;2.54;100.00;101937.09;4981185;28;20046;-79
2021/12/14 11:13:36;;;;;;;93.32;84.28;;;;;;;2.70;100.00;101942.78;4966640;28;20058;-80
2021/12/14 11:16:06;;;;;;;85.45;77.03;;;;;;;2.74;100.00;101938.09;4970246;28;20121;-79
2021/12/14 11:18:32;;;;;;;88.07;79.63;;;;;;;2.75;100.00;101934.50;4978334;28;20043;-79
2021/12/14 11:21:03;;;;;;;95.82;85.97;;;;;;;2.73;100.00;101939.91;4970718;28;20137;-79
2021/12/14 11:23:32;;;;;;;107.35;96.50;;;;;;;2.66;100.00;101938.75;4976146;28;20051;-78
2021/12/14 11:26:06;;;;;;;107.47;93.75;;;;;;;2.56;100.00;101943.03;4979807;28;20046;-79
2021/12/14 11:28:35;;;;;;;119.82;96.57;;;;;;;2.43;100.00;101945.00;4985774;28;20085;-79
2021/12/14 11:31:06;;;;;;;300.10;129.65;;;;;;;2.41;100.00;101944.28;4982690;28;20039;-79